Time;durP1;ratioP1;P1;durP2;ratioP2;P2;SDS_P1;SDS_P2;PMS_P1;PMS_P2;Temp;Humidity;BMP_temperature;BMP_pressure;BME280_temperature;BME280_humidity;BME280_pressure;Samples;Min_cycle;Max_cycle;Signal;HPM_P1;HPM_P2
2021/05/11 00:00:54;;;;;;;4.90;4.33;;;14.20;99.90;;;;;;5013206;28;20573;-70
2021/05/11 00:03:20;;;;;;;6.10;4.47;;;14.20;99.90;;;;;;5013291;28;20179;-71
2021/05/11 00:05:46;;;;;;;4.20;3.80;;;14.30;99.90;;;;;;5013155;28;20442;-71
2021/05/11 00:08:12;;;;;;;5.10;4.20;;;14.30;99.90;;;;;;5013093;28;20496;-72
2021/05/11 00:10:37;;;;;;;5.20;4.70;;;14.30;99.90;;;;;;5011718;28;20403;-71
2021/05/11 00:13:03;;;;;;;4.73;4.33;;;14.30;99.90;;;;;;5013325;28;20167;-72
2021/05/11 00:15:28;;;;;;;5.67;5.10;;;14.20;99.90;;;;;;5013102;28;20183;-72
2021/05/11 00:17:54;;;;;;;6.97;6.37;;;14.10;99.90;;;;;;5012874;28;20249;-72
2021/05/11 00:20:20;;;;;;;5.73;5.23;;;14.10;99.90;;;;;;5012625;28;20179;-72
2021/05/11 00:22:48;;;;;;;6.93;6.23;;;14.00;99.90;;;;;;5013045;28;20178;-72
2021/05/11 00:25:14;;;;;;;7.47;6.77;;;14.00;99.90;;;;;;5013100;28;20807;-72
2021/05/11 00:27:41;;;;;;;8.10;7.30;;;14.00;99.90;;;;;;5013064;28;20532;-72
2021/05/11 00:30:08;;;;;;;6.27;5.67;;;13.90;99.90;;;;;;5012577;28;20422;-72
2021/05/11 00:32:34;;;;;;;6.90;6.30;;;13.80;99.90;;;;;;5012072;28;20425;-72
2021/05/11 00:34:59;;;;;;;7.77;6.70;;;13.80;99.90;;;;;;5012714;28;20430;-72
2021/05/11 00:37:25;;;;;;;7.70;6.90;;;13.80;99.90;;;;;;5012629;28;20256;-72
2021/05/11 00:39:50;;;;;;;7.80;7.07;;;13.80;99.90;;;;;;5012583;28;20229;-72
2021/05/11 00:42:16;;;;;;;7.37;6.67;;;13.90;99.90;;;;;;5012654;28;20178;-72
2021/05/11 00:44:41;;;;;;;8.00;6.60;;;14.00;99.90;;;;;;5011299;28;20175;-72
2021/05/11 00:47:07;;;;;;;6.50;5.90;;;14.10;99.90;;;;;;5012276;28;20610;-72
2021/05/11 00:49:34;;;;;;;7.70;6.73;;;14.00;99.90;;;;;;5010807;28;20221;-72
2021/05/11 12:20:37;;;;;;;4.63;4.27;;;22.40;99.90;;;;;;5060430;23;20883;-73
2021/05/11 12:23:05;;;;;;;4.00;3.70;;;22.00;99.90;;;;;;4897247;29;20454;-73
2021/05/11 12:25:30;;;;;;;3.50;3.07;;;21.60;99.90;;;;;;4897666;29;20582;-73
2021/05/11 12:27:57;;;;;;;3.33;3.03;;;21.50;99.90;;;;;;4896716;29;20411;-72
2021/05/11 12:30:37;;;;;;;2.60;2.47;;;21.40;99.90;;;;;;4882783;29;20195;-72
2021/05/11 12:33:13;;;;;;;4.60;2.87;;;21.60;99.90;;;;;;4920955;23;20486;-71
2021/05/11 12:35:43;;;;;;;3.40;3.20;;;21.40;99.90;;;;;;4916330;29;20426;-72
2021/05/11 12:38:27;;;;;;;3.00;2.80;;;21.20;99.90;;;;;;4916283;29;20978;-72
2021/05/11 12:43:43;;;;;;;2.70;2.50;;;21.00;99.90;;;;;;4903489;29;20439;-73
2021/05/11 12:46:25;;;;;;;3.97;3.67;;;20.70;99.90;;;;;;4897518;29;20423;-73
2021/05/11 12:48:55;;;;;;;3.47;3.17;;;20.60;99.90;;;;;;4896839;29;20437;-71
2021/05/11 12:51:42;;;;;;;3.43;3.20;;;20.30;99.90;;;;;;4897338;29;20830;-71
2021/05/11 12:54:49;;;;;;;7.53;4.27;;;20.30;99.90;;;;;;4896999;29;20455;-71
2021/05/11 12:57:40;;;;;;;4.20;3.90;;;20.10;99.90;;;;;;4838617;29;20456;-71
2021/05/11 13:00:12;;;;;;;3.90;3.60;;;20.20;99.90;;;;;;4896627;29;20909;-73
2021/05/11 13:14:10;;;;;;;3.30;2.80;;;19.60;99.90;;;;;;4896751;29;20450;-72
2021/05/11 13:30:01;;;;;;;5.37;4.50;;;18.20;99.90;;;;;;4896050;29;20427;-73
2021/05/11 13:35:12;;;;;;;4.13;3.90;;;18.10;99.90;;;;;;4896639;29;20483;-71
2021/05/11 13:37:37;;;;;;;5.97;5.37;;;18.20;99.90;;;;;;4896430;29;20463;-71
2021/05/11 13:40:05;;;;;;;5.70;5.30;;;18.20;99.90;;;;;;4895610;29;20548;-71
2021/05/11 13:42:31;;;;;;;6.40;5.90;;;18.00;99.90;;;;;;4896406;29;20201;-71
2021/05/11 13:44:56;;;;;;;5.97;5.63;;;17.70;99.90;;;;;;4896200;29;20419;-71
2021/05/11 13:47:22;;;;;;;6.63;6.23;;;17.70;99.90;;;;;;4896001;29;20528;-71
2021/05/11 13:49:51;;;;;;;7.23;6.70;;;17.80;99.90;;;;;;4895373;29;20795;-71
2021/05/11 13:52:16;;;;;;;7.83;7.33;;;17.90;99.90;;;;;;4896174;29;20447;-71
2021/05/11 13:54:43;;;;;;;11.63;10.73;;;17.90;99.90;;;;;;4896355;29;20434;-71
2021/05/11 14:02:43;;;;;;;10.50;9.53;;;17.40;99.90;;;;;;4896045;29;20691;-71
2021/05/11 14:05:09;;;;;;;7.30;6.70;;;17.30;99.90;;;;;;4895928;29;20423;-71
2021/05/11 14:07:35;;;;;;;8.20;7.60;;;17.20;99.90;;;;;;4895799;29;20427;-71
2021/05/11 14:10:02;;;;;;;8.03;7.43;;;17.00;99.90;;;;;;4895221;29;20422;-71
2021/05/11 14:12:28;;;;;;;7.97;7.37;;;16.80;99.90;;;;;;4895727;29;20454;-71
2021/05/11 14:14:53;;;;;;;7.10;6.60;;;16.80;99.90;;;;;;4895785;29;20419;-71
2021/05/11 14:17:19;;;;;;;6.90;6.33;;;16.60;99.90;;;;;;4895646;29;20247;-71
2021/05/11 14:19:46;;;;;;;7.50;6.97;;;16.50;99.90;;;;;;4894485;29;20522;-71
2021/05/11 14:22:13;;;;;;;7.90;7.20;;;16.30;99.90;;;;;;4895962;29;20199;-71
2021/05/11 14:24:38;;;;;;;8.17;7.40;;;16.30;99.90;;;;;;4895996;29;20455;-72
2021/05/11 14:27:06;;;;;;;7.17;6.67;;;16.20;99.90;;;;;;4895737;29;20478;-71
2021/05/11 14:29:31;;;;;;;7.00;6.50;;;16.10;99.90;;;;;;4895010;29;20183;-71
2021/05/11 14:31:57;;;;;;;8.10;7.40;;;16.10;99.90;;;;;;4895478;29;20968;-72
2021/05/11 14:34:24;;;;;;;8.30;7.60;;;16.20;99.90;;;;;;4895857;29;20179;-72
2021/05/11 14:36:50;;;;;;;6.50;5.90;;;16.30;99.90;;;;;;4895590;29;20171;-72
2021/05/11 14:39:15;;;;;;;7.33;6.83;;;16.50;99.90;;;;;;4894969;29;20459;-72
2021/05/11 14:41:41;;;;;;;7.10;6.60;;;16.60;99.90;;;;;;4895873;29;20607;-71
2021/05/11 14:44:06;;;;;;;5.93;5.40;;;16.60;99.90;;;;;;4895486;29;20201;-72
2021/05/11 14:46:32;;;;;;;7.27;6.67;;;16.50;99.90;;;;;;4895519;29;20254;-72
2021/05/11 14:48:58;;;;;;;6.47;5.80;;;16.60;99.90;;;;;;4895203;29;20179;-72
2021/05/11 14:51:23;;;;;;;6.77;6.17;;;16.50;99.90;;;;;;4897948;29;20588;-74
2021/05/11 14:53:49;;;;;;;7.07;6.50;;;16.50;99.90;;;;;;4899189;29;20209;-71
2021/05/11 14:56:15;;;;;;;6.50;5.90;;;16.30;99.90;;;;;;4899285;29;20182;-71
2021/05/11 14:58:41;;;;;;;7.03;6.33;;;16.20;99.90;;;;;;4899162;29;20855;-73
2021/05/11 15:01:08;;;;;;;6.67;6.07;;;16.10;99.90;;;;;;4899139;29;20913;-71
2021/05/11 15:03:34;;;;;;;6.43;5.93;;;16.00;99.90;;;;;;4899145;29;20507;-71
2021/05/11 15:06:00;;;;;;;6.83;6.23;;;15.90;99.90;;;;;;4899054;29;20795;-73
2021/05/11 15:08:26;;;;;;;6.57;5.97;;;15.80;99.90;;;;;;4898956;29;20427;-73
2021/05/11 15:10:51;;;;;;;7.03;6.20;;;15.90;99.90;;;;;;4898398;29;20445;-73
2021/05/11 15:13:18;;;;;;;5.80;5.20;;;15.80;99.90;;;;;;4898742;29;20194;-73
2021/05/11 15:15:48;;;;;;;5.07;4.67;;;15.70;99.90;;;;;;4899101;29;20178;-73
2021/05/11 15:18:14;;;;;;;4.93;4.43;;;15.50;99.90;;;;;;4898887;29;20526;-71
2021/05/11 15:20:40;;;;;;;5.27;4.10;;;15.30;99.90;;;;;;4897544;29;20427;-73
2021/05/11 15:23:06;;;;;;;5.20;3.90;;;15.20;99.90;;;;;;4898784;29;20251;-73
2021/05/11 15:25:31;;;;;;;3.43;3.23;;;15.10;99.90;;;;;;4898662;29;20250;-72
2021/05/11 15:27:57;;;;;;;3.80;3.50;;;15.00;99.90;;;;;;4898820;29;20171;-72
2021/05/11 15:30:27;;;;;;;4.20;3.30;;;15.00;99.90;;;;;;4898120;29;20171;-73
2021/05/11 15:32:55;;;;;;;5.50;3.50;;;14.90;99.90;;;;;;4898652;29;20492;-73
2021/05/11 15:35:24;;;;;;;3.10;2.87;;;14.90;99.90;;;;;;4898785;29;20459;-73
2021/05/11 15:37:56;;;;;;;2.60;2.40;;;14.90;99.90;;;;;;4898511;29;20599;-72
2021/05/11 15:40:23;;;;;;;3.07;2.77;;;14.90;99.90;;;;;;4898005;29;20779;-72
2021/05/11 15:42:49;;;;;;;4.67;2.50;;;14.90;99.90;;;;;;4898828;29;20446;-73
2021/05/11 15:45:15;;;;;;;2.87;2.67;;;14.90;99.90;;;;;;4898586;29;20922;-73
2021/05/11 15:47:53;;;;;;;5.20;3.30;;;15.00;99.90;;;;;;4898492;29;20426;-72
2021/05/11 15:50:28;;;;;;;5.23;3.43;;;14.90;99.90;;;;;;4897829;29;20518;-72
2021/05/11 15:53:01;;;;;;;2.50;2.30;;;14.70;99.90;;;;;;4898712;29;20555;-72
2021/05/11 15:55:32;;;;;;;2.97;2.43;;;14.60;99.90;;;;;;4898251;29;20865;-72
2021/05/11 15:57:59;;;;;;;2.93;2.73;;;14.50;99.90;;;;;;4898265;29;20459;-72
2021/05/11 16:00:25;;;;;;;2.83;2.50;;;14.30;99.90;;;;;;4897752;29;20686;-72
2021/05/11 16:02:50;;;;;;;1.73;1.63;;;14.10;99.90;;;;;;4897376;29;20514;-72
2021/05/11 16:05:18;;;;;;;2.73;2.17;;;14.10;99.90;;;;;;4896578;29;20804;-73
2021/05/11 16:07:44;;;;;;;1.90;1.70;;;14.00;99.90;;;;;;4898115;29;20660;-73
2021/05/11 16:10:10;;;;;;;4.67;2.10;;;14.00;99.90;;;;;;4897522;29;20458;-72
2021/05/11 16:12:36;;;;;;;1.90;1.80;;;14.00;99.90;;;;;;4897870;29;20242;-72
2021/05/11 16:15:08;;;;;;;3.07;1.93;;;14.00;99.90;;;;;;4896560;29;20439;-72
2021/05/11 16:17:34;;;;;;;3.83;1.80;;;13.90;99.90;;;;;;4897749;29;20490;-72
2021/05/11 16:19:59;;;;;;;2.13;1.93;;;13.90;99.90;;;;;;4897810;29;20481;-72
2021/05/11 16:22:25;;;;;;;3.13;1.73;;;13.90;99.90;;;;;;4897964;29;20198;-72
2021/05/11 16:24:51;;;;;;;3.73;2.00;;;13.90;99.90;;;;;;4897949;29;20561;-73
2021/05/11 16:27:17;;;;;;;3.87;2.27;;;13.80;99.90;;;;;;4897678;29;20183;-73
2021/05/11 16:29:43;;;;;;;2.33;1.53;;;13.80;99.90;;;;;;4896885;29;20423;-72
2021/05/11 16:32:11;;;;;;;2.30;2.03;;;13.80;99.90;;;;;;4897389;29;20665;-73
2021/05/11 16:34:38;;;;;;;2.90;1.90;;;13.80;99.90;;;;;;4897637;29;20972;-73
2021/05/11 16:37:05;;;;;;;5.23;2.57;;;13.80;99.90;;;;;;4897511;29;20455;-72
2021/05/11 16:39:31;;;;;;;3.20;2.20;;;13.80;99.90;;;;;;4896817;29;20523;-73
2021/05/11 16:41:56;;;;;;;6.93;5.70;;;13.90;99.90;;;;;;4897259;29;20507;-73
2021/05/11 16:44:22;;;;;;;4.60;4.00;;;13.90;99.90;;;;;;4897292;29;20205;-73
2021/05/11 16:46:48;;;;;;;6.17;2.80;;;13.90;99.90;;;;;;4897284;29;20592;-72
2021/05/11 16:49:14;;;;;;;3.27;2.57;;;13.90;99.90;;;;;;4896613;29;20458;-73
2021/05/11 16:51:39;;;;;;;2.60;2.40;;;13.90;99.90;;;;;;4897071;29;20215;-73
2021/05/11 16:54:05;;;;;;;11.73;2.40;;;13.90;99.90;;;;;;4897143;29;20281;-72
2021/05/11 16:56:30;;;;;;;4.77;2.00;;;13.90;99.90;;;;;;4897306;29;20278;-73
2021/05/11 16:58:56;;;;;;;1.90;1.80;;;13.80;99.90;;;;;;4896253;29;20684;-72
2021/05/11 17:01:21;;;;;;;2.40;2.20;;;13.80;99.90;;;;;;4891625;29;20179;-73
2021/05/11 17:03:47;;;;;;;2.53;2.33;;;13.80;99.90;;;;;;4887283;29;20289;-67
2021/05/11 17:06:13;;;;;;;2.53;2.33;;;13.90;99.90;;;;;;4882319;29;20215;-67
2021/05/11 17:08:38;;;;;;;3.33;2.10;;;13.90;99.90;;;;;;4890592;29;20191;-68
2021/05/11 17:11:04;;;;;;;2.20;2.00;;;13.80;99.90;;;;;;4894924;29;20191;-67
2021/05/11 17:13:30;;;;;;;4.37;3.50;;;13.80;99.90;;;;;;4894783;29;20294;-67
2021/05/11 17:15:56;;;;;;;2.63;2.20;;;13.80;99.90;;;;;;4895239;29;20187;-68
2021/05/11 17:18:22;;;;;;;3.80;2.70;;;13.70;99.90;;;;;;4895648;29;20534;-66
2021/05/11 17:20:48;;;;;;;2.43;1.87;;;13.80;99.90;;;;;;4891383;29;20192;-68
2021/05/11 17:23:13;;;;;;;2.90;2.30;;;13.80;99.90;;;;;;4884121;29;20207;-68
2021/05/11 17:25:44;;;;;;;3.90;2.40;;;13.80;99.90;;;;;;4892587;29;20446;-67
2021/05/11 17:28:11;;;;;;;3.10;2.90;;;13.80;99.90;;;;;;4881950;29;20191;-68
2021/05/11 17:30:39;;;;;;;5.47;3.90;;;13.80;99.90;;;;;;4884218;29;20443;-67
2021/05/11 17:33:05;;;;;;;3.60;2.93;;;13.80;99.90;;;;;;4886620;29;21117;-66
2021/05/11 17:35:31;;;;;;;4.33;3.93;;;13.80;99.90;;;;;;4886715;29;21028;-67
2021/05/11 17:37:57;;;;;;;4.33;3.60;;;13.80;99.90;;;;;;4889099;29;20462;-67
2021/05/11 17:40:23;;;;;;;3.07;2.50;;;13.80;99.90;;;;;;4894940;29;20545;-68
2021/05/11 17:42:49;;;;;;;4.43;2.50;;;13.70;99.90;;;;;;4895483;29;20482;-68
2021/05/11 17:45:17;;;;;;;3.50;2.77;;;13.60;99.90;;;;;;4884919;29;20439;-68
2021/05/11 17:47:59;;;;;;;3.87;2.70;;;13.60;99.90;;;;;;4887591;29;20190;-68
2021/05/11 17:50:27;;;;;;;2.90;2.70;;;13.50;99.90;;;;;;4880274;29;20835;-68
2021/05/11 17:52:54;;;;;;;3.10;2.60;;;13.50;99.90;;;;;;4881597;29;20467;-67
2021/05/11 17:55:20;;;;;;;6.77;4.33;;;13.50;99.90;;;;;;4888272;29;20439;-68
2021/05/11 17:57:45;;;;;;;3.73;2.87;;;13.60;99.90;;;;;;4890020;29;20812;-69
2021/05/11 18:00:11;;;;;;;3.37;2.53;;;13.60;99.90;;;;;;4888429;29;20671;-68
2021/05/11 18:02:37;;;;;;;4.30;3.20;;;13.70;99.90;;;;;;4879576;29;20199;-68
2021/05/11 18:05:04;;;;;;;2.53;2.33;;;13.70;99.90;;;;;;4885900;29;20448;-68
2021/05/11 18:07:30;;;;;;;2.23;2.03;;;13.50;99.90;;;;;;4888969;29;20277;-68
2021/05/11 18:09:55;;;;;;;2.90;2.57;;;13.40;99.90;;;;;;4891484;29;20531;-67
2021/05/11 18:12:21;;;;;;;3.73;3.00;;;13.30;99.90;;;;;;4888483;29;20768;-68
2021/05/11 18:14:46;;;;;;;3.57;2.70;;;13.20;99.90;;;;;;4888369;29;20211;-69
2021/05/11 18:17:13;;;;;;;3.47;2.63;;;13.10;99.90;;;;;;4877132;29;20602;-68
2021/05/11 18:19:39;;;;;;;3.20;2.47;;;13.10;99.90;;;;;;4876659;29;20922;-68
2021/05/11 18:22:05;;;;;;;2.53;2.33;;;13.10;99.90;;;;;;4892848;29;20856;-69
2021/05/11 18:24:32;;;;;;;2.57;2.37;;;13.10;99.90;;;;;;4890425;29;20439;-69
2021/05/11 18:26:59;;;;;;;3.10;2.13;;;13.10;99.90;;;;;;4898179;29;20182;-68
2021/05/11 18:29:25;;;;;;;4.27;2.33;;;13.10;99.90;;;;;;4891114;29;20451;-69
2021/05/11 18:31:50;;;;;;;2.90;2.20;;;13.10;99.90;;;;;;4892202;29;20439;-69
2021/05/11 18:34:16;;;;;;;3.27;2.97;;;13.10;99.90;;;;;;4895228;29;20700;-69
2021/05/11 18:37:00;;;;;;;4.43;2.40;;;13.10;99.90;;;;;;4895865;29;20191;-69
2021/05/11 18:39:25;;;;;;;2.30;2.10;;;13.10;99.90;;;;;;4885068;29;20313;-69
2021/05/11 18:41:56;;;;;;;2.47;2.27;;;13.10;99.90;;;;;;4899058;29;21016;-69
2021/05/11 18:44:22;;;;;;;3.50;2.87;;;13.10;99.90;;;;;;4895326;29;20190;-69
2021/05/11 18:46:49;;;;;;;2.73;2.53;;;13.10;99.90;;;;;;4887969;29;20443;-69
2021/05/11 18:49:17;;;;;;;3.57;2.30;;;13.10;99.90;;;;;;4887950;29;20542;-69
2021/05/11 18:51:44;;;;;;;4.70;2.60;;;13.00;99.90;;;;;;4887686;29;20444;-69
2021/05/11 18:54:10;;;;;;;4.03;3.60;;;12.90;99.90;;;;;;4878686;29;20857;-70
2021/05/11 18:56:36;;;;;;;2.60;2.40;;;13.00;99.90;;;;;;4881971;29;20500;-69
2021/05/11 18:59:02;;;;;;;4.60;4.20;;;12.90;99.90;;;;;;4892868;29;20997;-69
2021/05/11 19:01:28;;;;;;;7.33;3.23;;;12.80;99.90;;;;;;4883509;29;20271;-69
2021/05/11 19:03:53;;;;;;;4.20;3.07;;;12.90;99.90;;;;;;4889161;29;20613;-70
2021/05/11 19:06:19;;;;;;;2.47;2.27;;;12.90;99.90;;;;;;4883582;29;20187;-69
2021/05/11 19:08:45;;;;;;;2.53;2.33;;;12.90;99.90;;;;;;4886888;29;20773;-70
2021/05/11 19:11:12;;;;;;;4.00;2.80;;;12.90;99.90;;;;;;4894369;29;20214;-69
2021/05/11 19:13:38;;;;;;;4.30;3.90;;;12.80;99.90;;;;;;4888468;29;20953;-67
2021/05/11 19:16:08;;;;;;;1.77;1.67;;;12.90;99.90;;;;;;4892840;29;20537;-69
2021/05/11 19:18:38;;;;;;;3.80;2.87;;;12.80;99.90;;;;;;4894742;29;20199;-69
2021/05/11 19:21:06;;;;;;;2.90;2.70;;;12.80;99.90;;;;;;4889401;29;20543;-68
2021/05/11 19:23:38;;;;;;;3.53;3.23;;;12.80;99.90;;;;;;4881100;29;20459;-68
2021/05/11 19:26:06;;;;;;;2.73;2.53;;;12.80;99.90;;;;;;4891485;29;20447;-68
2021/05/11 19:28:32;;;;;;;2.60;2.33;;;12.70;99.90;;;;;;4879661;29;20453;-68
2021/05/11 19:31:01;;;;;;;3.53;3.23;;;12.70;99.90;;;;;;4886474;29;20459;-68
2021/05/11 19:33:32;;;;;;;3.30;2.73;;;12.70;99.90;;;;;;4885184;29;20475;-68
2021/05/11 19:35:57;;;;;;;2.80;2.60;;;12.70;99.90;;;;;;4893927;29;20447;-68
2021/05/11 19:38:23;;;;;;;2.60;2.43;;;12.70;99.90;;;;;;4894745;29;20467;-68
2021/05/11 19:40:49;;;;;;;2.43;2.23;;;12.60;99.90;;;;;;4891024;29;20184;-68
2021/05/11 19:43:14;;;;;;;2.30;2.10;;;12.50;99.90;;;;;;4895387;29;20253;-70
2021/05/11 19:45:40;;;;;;;4.73;4.30;;;12.50;99.90;;;;;;4884620;29;20188;-67
2021/05/11 19:48:06;;;;;;;2.50;2.30;;;12.50;99.90;;;;;;4880455;29;20223;-70
2021/05/11 19:50:32;;;;;;;2.57;2.33;;;12.40;99.90;;;;;;4893379;29;20183;-74
2021/05/11 19:52:58;;;;;;;1.83;1.73;;;12.40;99.90;;;;;;4890553;29;20518;-67
2021/05/11 19:55:24;;;;;;;2.53;2.33;;;12.40;99.90;;;;;;4896970;29;20945;-67
2021/05/11 19:57:49;;;;;;;3.10;1.67;;;12.30;99.90;;;;;;4899804;29;20238;-68
2021/05/11 20:00:15;;;;;;;4.80;2.47;;;12.30;99.90;;;;;;4894839;29;20998;-67
2021/05/11 20:02:41;;;;;;;2.83;2.50;;;12.30;99.90;;;;;;4889377;29;20294;-67
2021/05/11 20:05:07;;;;;;;2.10;1.90;;;12.30;99.90;;;;;;4897708;29;20534;-67
2021/05/11 20:07:32;;;;;;;2.30;2.10;;;12.30;99.90;;;;;;4897647;29;20236;-67
2021/05/11 20:09:58;;;;;;;4.60;3.60;;;12.20;99.90;;;;;;4880794;29;20809;-67
2021/05/11 20:12:23;;;;;;;2.70;2.50;;;12.20;99.90;;;;;;4886731;29;20266;-68
2021/05/11 20:14:49;;;;;;;4.63;3.80;;;12.20;99.90;;;;;;4890807;29;20271;-67
2021/05/11 20:17:14;;;;;;;2.77;2.57;;;12.20;99.90;;;;;;4898360;29;20587;-67
2021/05/11 20:19:40;;;;;;;1.83;1.73;;;12.10;99.90;;;;;;4899652;29;20179;-67
2021/05/11 20:22:06;;;;;;;3.20;2.30;;;12.10;99.90;;;;;;4890599;29;20188;-67
2021/05/11 20:24:33;;;;;;;5.60;1.90;;;12.10;99.90;;;;;;4884330;29;20205;-67
2021/05/11 20:26:59;;;;;;;2.17;1.80;;;12.00;99.90;;;;;;4880739;29;20184;-67
2021/05/11 20:29:25;;;;;;;4.53;3.93;;;12.00;99.90;;;;;;4892339;29;20819;-67
2021/05/11 20:31:51;;;;;;;6.07;2.70;;;12.00;99.90;;;;;;4889780;29;20278;-66
2021/05/11 20:34:19;;;;;;;2.00;1.90;;;12.00;99.90;;;;;;4889713;29;20202;-68
2021/05/11 20:36:45;;;;;;;2.77;2.57;;;12.00;99.90;;;;;;4882344;29;20484;-67
2021/05/11 20:39:11;;;;;;;2.10;1.90;;;12.00;99.90;;;;;;4889245;29;20550;-67
2021/05/11 20:41:39;;;;;;;2.53;2.33;;;12.00;99.90;;;;;;4888747;29;21275;-67
2021/05/11 20:44:05;;;;;;;2.90;2.70;;;12.00;99.90;;;;;;4895859;29;20235;-67
2021/05/11 20:46:33;;;;;;;2.90;2.53;;;12.10;99.90;;;;;;4896328;29;20479;-67
2021/05/11 20:48:58;;;;;;;2.37;2.17;;;12.10;99.90;;;;;;4895166;29;20960;-67
2021/05/11 20:51:24;;;;;;;3.60;3.30;;;12.10;99.90;;;;;;4890225;29;20484;-67
2021/05/11 20:53:50;;;;;;;3.10;2.90;;;12.10;99.90;;;;;;4886266;29;20207;-67
2021/05/11 20:56:15;;;;;;;3.27;2.43;;;12.20;99.90;;;;;;4895554;29;20191;-67
2021/05/11 20:58:41;;;;;;;3.67;2.43;;;12.10;99.90;;;;;;4882057;29;20619;-67
2021/05/11 21:01:06;;;;;;;2.83;2.50;;;12.10;99.90;;;;;;4909607;29;20694;-67
2021/05/11 21:03:32;;;;;;;3.20;2.67;;;12.00;99.90;;;;;;4890994;29;20658;-67
2021/05/11 21:05:57;;;;;;;3.83;3.53;;;12.00;99.90;;;;;;4886625;29;20183;-67
2021/05/11 21:08:23;;;;;;;2.73;2.30;;;12.00;99.90;;;;;;4889221;29;20211;-66
2021/05/11 21:10:49;;;;;;;4.10;3.80;;;12.00;99.90;;;;;;4887835;29;20192;-67
2021/05/11 21:13:14;;;;;;;3.50;3.20;;;12.00;99.90;;;;;;4880892;29;20202;-67
2021/05/11 21:15:42;;;;;;;3.40;3.20;;;12.00;99.90;;;;;;4895871;29;20183;-65
2021/05/11 21:18:08;;;;;;;3.33;2.80;;;11.90;99.90;;;;;;4886895;29;20219;-66
2021/05/11 21:20:34;;;;;;;3.57;3.37;;;11.90;99.90;;;;;;4887891;29;20521;-66
2021/05/11 21:23:00;;;;;;;3.43;3.23;;;11.90;99.90;;;;;;4887395;29;20207;-66
2021/05/11 21:25:27;;;;;;;6.77;3.80;;;11.90;99.90;;;;;;4894808;29;20495;-68
2021/05/11 21:27:53;;;;;;;3.27;2.60;;;11.90;99.90;;;;;;4891622;29;20450;-72
2021/05/11 21:30:19;;;;;;;3.27;3.00;;;11.90;99.90;;;;;;4876780;29;20444;-72
2021/05/11 21:32:45;;;;;;;3.73;2.73;;;11.90;99.90;;;;;;4888446;29;20475;-73
2021/05/11 21:35:12;;;;;;;2.50;2.30;;;11.90;99.90;;;;;;4887211;29;20547;-73
2021/05/11 21:37:37;;;;;;;2.80;2.60;;;12.00;99.90;;;;;;4895484;29;20198;-73
2021/05/11 21:40:04;;;;;;;2.80;2.60;;;12.00;99.90;;;;;;4884391;29;20466;-73
2021/05/11 21:42:30;;;;;;;2.60;2.40;;;12.00;99.90;;;;;;4883616;29;20211;-73
2021/05/11 21:44:55;;;;;;;3.30;2.67;;;12.00;99.90;;;;;;4880642;29;20450;-73
2021/05/11 21:47:23;;;;;;;2.83;2.73;;;12.00;99.90;;;;;;4895217;29;20186;-73
2021/05/11 21:49:48;;;;;;;5.93;4.37;;;12.10;99.90;;;;;;4893281;29;20552;-73
2021/05/11 21:52:14;;;;;;;7.10;3.77;;;12.00;99.90;;;;;;4884258;29;20466;-72
2021/05/11 21:54:40;;;;;;;4.30;4.00;;;12.00;99.90;;;;;;4878370;29;20608;-73
2021/05/11 21:57:06;;;;;;;3.80;3.20;;;12.10;99.90;;;;;;4877259;29;20459;-73
2021/05/11 21:59:31;;;;;;;2.77;2.30;;;12.00;99.90;;;;;;4891799;29;20214;-73
2021/05/11 22:01:57;;;;;;;3.90;3.60;;;12.00;99.90;;;;;;4893713;29;20227;-68
2021/05/11 22:04:24;;;;;;;2.90;2.50;;;12.00;99.90;;;;;;4890071;29;20184;-66
2021/05/11 22:06:50;;;;;;;2.00;1.90;;;12.00;99.90;;;;;;4894810;29;20183;-67
2021/05/11 22:09:16;;;;;;;2.87;2.30;;;12.00;99.90;;;;;;4891393;29;20447;-65
2021/05/11 22:11:41;;;;;;;2.47;2.27;;;12.00;99.90;;;;;;4894206;29;20450;-67
2021/05/11 22:14:09;;;;;;;3.03;2.43;;;11.90;99.90;;;;;;4879705;29;20660;-66
2021/05/11 22:16:35;;;;;;;2.67;2.47;;;11.90;99.90;;;;;;4879641;29;20239;-66
2021/05/11 22:19:05;;;;;;;4.00;2.83;;;11.90;99.90;;;;;;4884863;29;20992;-67
2021/05/11 22:21:31;;;;;;;2.33;2.13;;;11.90;99.90;;;;;;4890127;29;20451;-66
2021/05/11 22:23:57;;;;;;;6.00;2.83;;;11.90;99.90;;;;;;4885927;29;20451;-65
2021/05/11 22:26:22;;;;;;;5.80;3.90;;;11.90;99.90;;;;;;4883691;29;20657;-67
2021/05/11 22:28:48;;;;;;;2.73;2.27;;;11.90;99.90;;;;;;4883619;29;20247;-67
2021/05/11 22:31:13;;;;;;;2.90;2.70;;;11.90;99.90;;;;;;4877384;29;20184;-67
2021/05/11 22:33:39;;;;;;;2.83;2.30;;;11.80;99.90;;;;;;4888825;29;20294;-67
2021/05/11 22:36:05;;;;;;;3.33;3.00;;;11.80;99.90;;;;;;4882607;29;20662;-67
2021/05/11 22:38:31;;;;;;;2.80;2.60;;;11.80;99.90;;;;;;4878035;29;20290;-67
2021/05/11 22:40:58;;;;;;;3.80;3.00;;;11.80;99.90;;;;;;4875792;29;20988;-66
2021/05/11 22:43:26;;;;;;;3.53;2.77;;;11.80;99.90;;;;;;4888513;29;20468;-66
2021/05/11 22:45:52;;;;;;;2.97;2.67;;;11.80;99.90;;;;;;4884463;29;20431;-66
2021/05/11 22:48:18;;;;;;;3.23;2.93;;;11.80;99.90;;;;;;4884304;29;20436;-66
2021/05/11 22:50:49;;;;;;;2.60;2.40;;;11.80;99.90;;;;;;4889730;29;20205;-66
2021/05/11 22:53:19;;;;;;;3.40;3.20;;;11.80;99.90;;;;;;4892907;29;20210;-66
2021/05/11 22:55:50;;;;;;;2.57;2.37;;;11.90;99.90;;;;;;4895194;29;20542;-67
2021/05/11 22:58:17;;;;;;;2.27;2.07;;;11.90;99.90;;;;;;4893972;29;20470;-66
2021/05/11 23:00:44;;;;;;;2.23;2.13;;;11.90;99.90;;;;;;4891692;29;20499;-67
2021/05/11 23:03:09;;;;;;;3.20;3.00;;;12.00;99.90;;;;;;4891985;29;20570;-66
2021/05/11 23:05:36;;;;;;;2.40;2.30;;;11.90;99.90;;;;;;4891726;29;20476;-66
2021/05/11 23:08:02;;;;;;;2.37;2.17;;;11.90;99.90;;;;;;4887536;29;20259;-66
2021/05/11 23:10:28;;;;;;;1.97;1.87;;;11.90;99.90;;;;;;4893058;29;21005;-66
2021/05/11 23:12:55;;;;;;;3.00;2.80;;;11.90;99.90;;;;;;4888965;29;20772;-66
2021/05/11 23:15:30;;;;;;;3.10;2.90;;;11.90;99.90;;;;;;4897460;29;21208;-67
2021/05/11 23:18:59;;;;;;;3.40;3.10;;;11.80;99.90;;;;;;4895698;29;20485;-66
2021/05/11 23:20:51;;;;;;;3.23;2.93;;;11.80;99.90;;;;;;4877027;29;20490;-67
2021/05/11 23:23:17;;;;;;;3.00;2.80;;;11.80;99.90;;;;;;4884241;29;20546;-67
2021/05/11 23:25:44;;;;;;;3.50;3.00;;;11.80;99.90;;;;;;4886553;29;20190;-66
2021/05/11 23:28:14;;;;;;;2.70;2.60;;;11.80;99.90;;;;;;4894603;29;20446;-66
2021/05/11 23:30:41;;;;;;;4.10;3.27;;;11.80;99.90;;;;;;4897224;29;20967;-66
2021/05/11 23:33:06;;;;;;;3.23;3.03;;;11.80;99.90;;;;;;4887917;29;20566;-66
2021/05/11 23:35:33;;;;;;;6.00;3.60;;;11.90;99.90;;;;;;4893013;29;20471;-66
2021/05/11 23:37:59;;;;;;;2.63;2.53;;;11.90;99.90;;;;;;4879875;29;20460;-66
2021/05/11 23:40:24;;;;;;;3.10;2.90;;;12.00;99.90;;;;;;4891053;29;20427;-66
2021/05/11 23:42:51;;;;;;;2.90;2.70;;;11.90;99.90;;;;;;4881610;29;20540;-66
2021/05/11 23:45:22;;;;;;;3.53;3.23;;;11.90;99.90;;;;;;4898189;29;20179;-66
2021/05/11 23:47:48;;;;;;;2.90;2.70;;;12.00;99.90;;;;;;4882972;29;20444;-66
2021/05/11 23:50:15;;;;;;;3.57;3.20;;;12.00;99.90;;;;;;4885923;29;20446;-67
2021/05/11 23:52:41;;;;;;;2.53;2.33;;;12.10;99.90;;;;;;4888244;29;20455;-66
2021/05/11 23:55:08;;;;;;;3.10;2.87;;;12.10;99.90;;;;;;4884742;29;20450;-66
2021/05/11 23:57:34;;;;;;;3.77;3.47;;;12.00;99.90;;;;;;4895206;29;20443;-66
2021/05/11 23:59:59;;;;;;;4.20;3.50;;;12.00;99.90;;;;;;4888438;29;20459;-65
